Terminal Aerodrome Forecast
Issued by NWS

Home | Current Version | Previous Version | Text Only | Print | Product List | Glossary On
Versions: 1 2 3 4 5 6 7 8 9 10 11 12 13 14
000
FTUS41 KGYX 271732
TAFPSM
TAF
KPSM 271732Z 2718/2818 19003KT P6SM FEW040 OVC100
      TEMPO 2722/2802 2SM -TSRA BKN030CB
     FM280600 27004KT P6SM FEW100 SCT250
     FM281200 29007KT P6SM BKN250=

USA.gov is the U.S. government's official web portal to all federal, state and local government web resources and services.